createdAt,value
2022-09-15T00:00:55.668Z,2.83
2022-09-15T00:03:23.247Z,2.70
2022-09-15T00:05:51.722Z,3.75
2022-09-15T00:08:18.400Z,3.00
2022-09-15T00:10:54.241Z,2.45
2022-09-15T00:13:21.612Z,3.03
2022-09-15T00:15:48.483Z,2.85
2022-09-15T00:18:15.200Z,2.63
2022-09-15T00:20:43.508Z,2.38
2022-09-15T00:23:11.930Z,2.45
2022-09-15T00:25:48.516Z,2.72
2022-09-15T00:28:17.006Z,2.65
2022-09-15T00:30:54.573Z,3.03
2022-09-15T00:33:22.601Z,2.67
2022-09-15T00:35:51.138Z,3.72
2022-09-15T00:38:18.686Z,3.53
2022-09-15T00:40:53.926Z,4.40
2022-09-15T00:43:48.254Z,3.85
2022-09-15T00:46:17.486Z,3.20
2022-09-15T00:49:15.956Z,3.22
2022-09-15T00:52:00.340Z,3.15
2022-09-15T00:54:35.685Z,2.97
2022-09-15T00:57:07.975Z,3.03
2022-09-15T00:59:39.578Z,3.42
2022-09-15T01:02:32.920Z,3.30
2022-09-15T01:05:01.808Z,3.40
2022-09-15T01:07:37.294Z,3.20
2022-09-15T01:10:24.446Z,3.65
2022-09-15T01:12:52.439Z,2.97
2022-09-15T01:15:20.978Z,3.38
2022-09-15T01:18:20.062Z,4.10
2022-09-15T01:24:09.556Z,3.70
2022-09-15T01:26:52.593Z,3.83
2022-09-15T01:29:36.954Z,3.55
2022-09-15T01:32:37.485Z,3.47
2022-09-15T01:35:22.041Z,3.42
2022-09-15T01:38:14.501Z,3.67
2022-09-15T01:40:48.294Z,4.28
2022-09-15T01:43:16.940Z,4.32
2022-09-15T01:45:47.130Z,5.80
2022-09-15T01:48:16.160Z,4.88
2022-09-15T01:50:47.368Z,4.60
2022-09-15T01:53:17.923Z,4.57
2022-09-15T01:56:11.625Z,4.70
2022-09-15T01:58:39.752Z,4.80
2022-09-15T02:01:13.781Z,4.40
2022-09-15T02:03:57.309Z,4.80
2022-09-15T02:06:52.010Z,4.85
2022-09-15T02:09:30.900Z,4.45
2022-09-15T02:12:00.918Z,4.78
2022-09-15T02:14:55.934Z,4.53
2022-09-15T02:17:25.000Z,4.97
2022-09-15T02:19:57.699Z,4.18
2022-09-15T02:22:28.848Z,4.60
2022-09-15T02:25:03.917Z,4.13
2022-09-15T02:27:37.415Z,4.30
2022-09-15T02:30:11.637Z,4.57
2022-09-15T02:32:43.564Z,4.40
2022-09-15T02:35:11.288Z,4.35
2022-09-15T02:37:38.920Z,3.75
2022-09-15T02:40:07.184Z,6.50
2022-09-15T02:42:34.759Z,3.40
2022-09-15T02:45:02.126Z,3.72
2022-09-15T02:47:29.445Z,3.63
2022-09-15T02:52:23.813Z,3.30
2022-09-15T02:54:50.628Z,2.85
2022-09-15T02:57:17.580Z,3.40
2022-09-15T03:00:02.894Z,3.38
2022-09-15T03:02:30.052Z,3.35
2022-09-15T03:07:23.483Z,3.10
2022-09-15T03:09:50.409Z,3.35
2022-09-15T03:12:17.675Z,3.97
2022-09-15T03:17:10.990Z,3.85
2022-09-15T03:19:37.707Z,4.03
2022-09-15T03:22:04.858Z,5.10
2022-09-15T03:24:31.500Z,4.93
2022-09-15T03:26:58.151Z,4.97
2022-09-15T03:29:24.828Z,5.22
2022-09-15T03:31:52.088Z,4.80
2022-09-15T03:36:45.336Z,5.53
2022-09-15T03:39:12.514Z,5.45
2022-09-15T03:41:39.180Z,5.45
2022-09-15T03:44:05.834Z,6.18
2022-09-15T03:46:32.902Z,6.35
2022-09-15T03:48:59.560Z,5.50
2022-09-15T03:51:26.194Z,5.53
2022-09-15T03:53:53.015Z,5.03
2022-09-15T03:56:31.696Z,5.53
2022-09-15T03:58:59.978Z,4.78
2022-09-15T04:01:26.644Z,5.43
2022-09-15T04:03:54.034Z,5.70
2022-09-15T04:06:22.625Z,6.13
2022-09-15T04:08:50.442Z,6.07
2022-09-15T04:11:19.065Z,6.82
2022-09-15T04:13:46.193Z,6.75
2022-09-15T04:16:18.473Z,7.15
2022-09-15T04:18:45.697Z,8.10
2022-09-15T04:21:14.449Z,7.40
2022-09-15T04:23:42.096Z,7.88
2022-09-15T04:26:18.562Z,8.90
2022-09-15T04:28:45.254Z,8.57
2022-09-15T04:31:14.314Z,9.13
2022-09-15T04:33:42.879Z,8.07
2022-09-15T04:36:12.981Z,8.68
2022-09-15T04:38:39.837Z,7.38
2022-09-15T04:41:06.927Z,7.20
2022-09-15T04:43:34.618Z,7.38
2022-09-15T04:46:01.797Z,6.85
2022-09-15T04:48:28.521Z,5.72
2022-09-15T04:51:00.301Z,5.72
2022-09-15T04:53:26.946Z,5.25
2022-09-15T04:55:53.732Z,5.68
2022-09-15T04:58:20.357Z,6.10
2022-09-15T05:00:47.044Z,5.80
2022-09-15T05:03:14.389Z,5.13
2022-09-15T05:08:08.373Z,5.80
2022-09-15T05:10:35.194Z,7.53
2022-09-15T05:13:01.848Z,7.55
2022-09-15T05:15:28.504Z,7.35
2022-09-15T05:17:55.123Z,7.78
2022-09-15T05:20:22.438Z,7.70
2022-09-15T05:25:15.699Z,7.63
2022-09-15T05:27:42.622Z,6.88
2022-09-15T05:30:35.818Z,7.43
2022-09-15T05:32:56.542Z,7.70
2022-09-15T05:35:23.594Z,6.78
2022-09-15T05:37:50.329Z,7.05
2022-09-15T05:40:17.244Z,7.70
2022-09-15T05:42:43.939Z,7.88
2022-09-15T05:45:10.925Z,7.80
2022-09-15T05:47:37.685Z,7.82
2022-09-15T05:50:04.550Z,9.40
2022-09-15T05:52:31.195Z,8.70
2022-09-15T05:54:59.237Z,8.73
2022-09-15T05:57:26.866Z,8.60
2022-09-15T05:59:53.533Z,7.47
2022-09-15T06:02:20.271Z,6.50
2022-09-15T06:04:47.178Z,5.65
2022-09-15T06:07:14.077Z,5.55
2022-09-15T06:09:40.945Z,4.60
2022-09-15T06:12:07.772Z,5.90
2022-09-15T06:14:34.642Z,4.75
2022-09-15T06:17:01.374Z,4.85
2022-09-15T06:19:28.317Z,4.47
2022-09-15T06:21:55.023Z,3.97
2022-09-15T06:24:21.997Z,3.67
2022-09-15T06:26:48.641Z,3.25
2022-09-15T06:29:15.353Z,2.95
2022-09-15T06:31:42.105Z,3.10
2022-09-15T06:34:11.194Z,2.85
2022-09-15T06:36:39.008Z,3.53
2022-09-15T06:39:05.971Z,3.70
2022-09-15T06:41:58.477Z,4.93
2022-09-15T06:44:20.227Z,4.80
2022-09-15T06:46:47.138Z,4.72
2022-09-15T06:49:14.122Z,4.65
2022-09-15T06:51:40.899Z,4.43
2022-09-15T06:54:07.841Z,4.32
2022-09-15T06:56:37.920Z,4.63
2022-09-15T06:59:05.220Z,3.75
2022-09-15T07:01:32.858Z,3.90
2022-09-15T07:04:01.227Z,4.40
2022-09-15T07:06:29.516Z,4.15
2022-09-15T07:08:57.109Z,3.92
2022-09-15T07:11:24.181Z,3.88
2022-09-15T07:13:51.524Z,3.75
2022-09-15T07:18:46.787Z,4.00
2022-09-15T07:21:17.031Z,3.97
2022-09-15T07:23:44.500Z,3.80
2022-09-15T07:26:16.794Z,4.28
2022-09-15T07:28:45.640Z,5.05
2022-09-15T07:31:15.164Z,5.00
2022-09-15T07:33:42.212Z,4.82
2022-09-15T07:36:10.099Z,5.80
2022-09-15T07:38:40.565Z,4.68
2022-09-15T07:41:09.765Z,5.35
2022-09-15T07:43:36.833Z,5.30
2022-09-15T07:46:04.470Z,5.68
2022-09-15T07:48:31.866Z,5.85
2022-09-15T07:51:01.569Z,5.78
2022-09-15T07:53:29.400Z,5.78
2022-09-15T07:55:56.427Z,5.75
2022-09-15T07:58:23.688Z,6.13
2022-09-15T08:03:17.089Z,5.82
2022-09-15T08:05:45.864Z,6.97
2022-09-15T08:08:12.857Z,6.70
2022-09-15T08:10:52.298Z,5.97
2022-09-15T08:13:39.678Z,5.85
2022-09-15T08:16:12.001Z,5.03
2022-09-15T08:18:39.823Z,5.13
2022-09-15T08:21:09.381Z,5.60
2022-09-15T08:23:36.496Z,4.20
2022-09-15T08:26:13.898Z,4.47
2022-09-15T08:28:41.709Z,4.95
2022-09-15T08:33:36.543Z,3.93
2022-09-15T08:36:07.039Z,3.92
2022-09-15T08:38:34.097Z,3.45
2022-09-15T08:41:05.161Z,3.72
2022-09-15T08:43:40.910Z,3.67
2022-09-15T08:46:13.386Z,3.33
2022-09-15T08:48:45.977Z,3.60
2022-09-15T08:51:20.418Z,3.60
2022-09-15T08:53:53.691Z,3.25
2022-09-15T08:56:21.001Z,3.00
2022-09-15T08:58:47.918Z,2.75
2022-09-15T09:01:39.491Z,2.88
2022-09-15T09:04:42.566Z,2.95
2022-09-15T09:07:43.956Z,2.95
2022-09-15T09:10:33.441Z,2.92
2022-09-15T09:13:33.307Z,2.80
2022-09-15T09:16:16.792Z,2.42
2022-09-15T09:19:16.562Z,2.63
2022-09-15T09:21:48.155Z,2.50
2022-09-15T09:24:17.733Z,2.30
2022-09-15T09:26:49.217Z,2.63
2022-09-15T09:29:23.972Z,2.10
2022-09-15T09:31:53.125Z,2.83
2022-09-15T09:34:45.547Z,2.80
2022-09-15T09:37:15.632Z,3.08
2022-09-15T09:39:42.587Z,2.90
2022-09-15T09:42:15.841Z,2.78
2022-09-15T09:44:42.725Z,2.70
2022-09-15T09:47:09.901Z,2.80
2022-09-15T09:52:12.821Z,2.55
2022-09-15T09:54:39.533Z,2.35
2022-09-15T09:57:39.927Z,2.20
2022-09-15T10:00:31.861Z,2.33
2022-09-15T10:03:08.720Z,2.40
2022-09-15T10:05:35.426Z,2.43
2022-09-15T10:08:03.013Z,2.40
2022-09-15T10:10:32.327Z,2.55
2022-09-15T10:13:02.918Z,2.40
2022-09-15T10:15:35.074Z,1.95
2022-09-15T10:18:01.957Z,2.30
2022-09-15T10:20:32.767Z,2.20
2022-09-15T10:23:25.504Z,2.10
2022-09-15T10:25:59.468Z,2.55
2022-09-15T10:28:28.038Z,2.30
2022-09-15T10:31:07.915Z,2.28
2022-09-15T10:33:36.898Z,2.40
2022-09-15T10:36:21.394Z,2.08
2022-09-15T10:38:53.148Z,2.65
2022-09-15T10:41:25.516Z,2.47
2022-09-15T10:44:27.015Z,1.95
2022-09-15T10:47:18.234Z,2.35
2022-09-15T10:49:59.946Z,2.22
2022-09-15T10:52:56.621Z,2.40
2022-09-15T10:55:52.241Z,2.08
2022-09-15T10:58:45.910Z,2.25
2022-09-15T11:01:23.093Z,2.35
2022-09-15T11:04:04.878Z,3.45
2022-09-15T11:06:50.468Z,3.60
2022-09-15T11:09:25.063Z,2.72
2022-09-15T11:12:25.943Z,2.72
2022-09-15T11:15:06.055Z,3.40
2022-09-15T11:17:44.788Z,2.92
2022-09-15T11:20:39.279Z,3.58
2022-09-15T11:23:20.707Z,2.50
2022-09-15T11:25:52.870Z,2.95
2022-09-15T11:28:45.710Z,2.65
2022-09-15T11:31:27.009Z,3.03
2022-09-15T11:34:15.449Z,3.47
2022-09-15T11:39:37.348Z,2.92
2022-09-15T11:42:09.557Z,2.63
2022-09-15T11:44:43.414Z,3.55
2022-09-15T11:47:36.330Z,2.92
2022-09-15T11:50:09.876Z,3.00
2022-09-15T11:53:04.115Z,2.53
2022-09-15T11:55:34.793Z,2.45
2022-09-15T11:58:44.339Z,2.40
2022-09-15T12:03:50.627Z,2.35
2022-09-15T12:06:43.267Z,2.22
2022-09-15T12:09:15.253Z,1.80
2022-09-15T12:11:54.270Z,1.70
2022-09-15T12:14:38.522Z,2.05
2022-09-15T12:17:08.217Z,2.15
2022-09-15T12:19:48.928Z,2.17
2022-09-15T12:22:35.024Z,1.77
2022-09-15T12:25:09.364Z,1.90
2022-09-15T12:27:36.118Z,1.60
2022-09-15T12:30:04.548Z,1.65
2022-09-15T12:32:35.111Z,1.67
2022-09-15T12:35:10.106Z,1.35
2022-09-15T12:40:40.618Z,1.55
2022-09-15T12:43:13.499Z,1.67
2022-09-15T12:45:42.945Z,1.30
2022-09-15T12:48:21.512Z,1.40
2022-09-15T12:50:58.492Z,1.48
2022-09-15T12:53:30.715Z,1.00
2022-09-15T12:56:03.216Z,1.75
2022-09-15T12:58:40.553Z,1.02
2022-09-15T13:01:27.244Z,1.02
2022-09-15T13:04:00.455Z,1.15
2022-09-15T13:06:34.128Z,1.13
2022-09-15T13:09:05.309Z,1.20
2022-09-15T13:11:38.080Z,1.00
2022-09-15T13:14:07.746Z,1.23
2022-09-15T13:16:40.417Z,1.50
2022-09-15T13:19:24.365Z,1.77
2022-09-15T13:21:58.487Z,1.02
2022-09-15T13:24:37.407Z,1.55
2022-09-15T13:27:06.793Z,1.20
2022-09-15T13:29:41.824Z,1.00
2022-09-15T13:32:44.452Z,1.98
2022-09-15T13:35:22.996Z,0.90
2022-09-15T13:38:22.118Z,0.82
2022-09-15T13:41:12.512Z,0.90
2022-09-15T13:43:57.821Z,0.90
2022-09-15T13:46:59.042Z,0.98
2022-09-15T13:49:48.440Z,0.80
2022-09-15T13:52:22.384Z,1.00
2022-09-15T13:55:28.929Z,0.93
2022-09-15T14:00:53.557Z,1.00
2022-09-15T14:03:25.837Z,0.93
2022-09-15T14:05:54.270Z,0.98
2022-09-15T14:08:28.342Z,1.00
2022-09-15T14:10:59.402Z,0.70
2022-09-15T14:13:28.446Z,1.10
2022-09-15T14:16:11.884Z,0.93
2022-09-15T14:18:45.104Z,1.08
2022-09-15T14:21:21.298Z,1.08
2022-09-15T14:23:55.032Z,1.00
2022-09-15T14:26:25.250Z,1.10
2022-09-15T14:29:00.307Z,1.17
2022-09-15T14:31:39.017Z,1.00
2022-09-15T14:34:14.448Z,1.33
2022-09-15T14:36:41.365Z,1.13
2022-09-15T14:39:20.415Z,1.00
2022-09-15T14:41:48.298Z,0.82
2022-09-15T14:47:25.356Z,1.00
2022-09-15T14:50:16.937Z,1.20
2022-09-15T14:52:58.653Z,1.50
2022-09-15T14:55:29.126Z,0.80
2022-09-15T14:58:05.298Z,0.90
2022-09-15T15:00:44.607Z,0.93
2022-09-15T15:03:24.719Z,1.10
2022-09-15T15:06:12.778Z,0.88
2022-09-15T15:08:57.754Z,0.80
2022-09-15T15:11:24.794Z,0.88
2022-09-15T15:16:24.081Z,1.02
2022-09-15T15:18:51.948Z,0.70
2022-09-15T15:21:45.164Z,0.80
2022-09-15T15:24:23.097Z,1.05
2022-09-15T15:26:50.986Z,0.63
2022-09-15T15:29:43.853Z,0.70
2022-09-15T15:32:16.141Z,0.80
2022-09-15T15:34:55.753Z,0.60
2022-09-15T15:37:33.878Z,0.60
2022-09-15T15:40:05.310Z,1.42
2022-09-15T15:42:32.262Z,0.47
2022-09-15T15:45:17.153Z,0.70
2022-09-15T15:47:43.822Z,0.70
2022-09-15T15:50:20.780Z,0.70
2022-09-15T15:52:49.225Z,0.50
2022-09-15T15:55:21.036Z,0.65
2022-09-15T15:57:50.928Z,0.40
2022-09-15T16:00:23.115Z,0.50
2022-09-15T16:02:51.049Z,0.65
2022-09-15T16:05:19.499Z,0.40
2022-09-15T16:07:49.457Z,0.40
2022-09-15T16:10:19.268Z,0.50
2022-09-15T16:12:45.983Z,0.60
2022-09-15T16:15:16.690Z,0.50
2022-09-15T16:17:46.671Z,0.28
2022-09-15T16:20:15.958Z,0.40
2022-09-15T16:22:42.888Z,0.70
2022-09-15T16:25:18.596Z,0.32
2022-09-15T16:27:45.293Z,0.38
2022-09-15T16:30:12.120Z,0.60
2022-09-15T16:32:42.475Z,0.50
2022-09-15T16:35:52.350Z,0.40
2022-09-15T16:38:20.264Z,0.52
2022-09-15T16:40:48.139Z,0.50
2022-09-15T16:43:20.856Z,0.60
2022-09-15T16:45:48.596Z,0.40
2022-09-15T16:48:15.473Z,0.50
2022-09-15T16:50:50.334Z,0.50
2022-09-15T16:53:30.901Z,0.50
2022-09-15T16:55:58.583Z,0.68
2022-09-15T16:58:25.228Z,0.60
2022-09-15T17:00:52.854Z,0.50
2022-09-15T17:03:22.714Z,0.60
2022-09-15T17:05:58.784Z,0.43
2022-09-15T17:08:29.601Z,0.90
2022-09-15T17:10:58.096Z,0.60
2022-09-15T17:13:29.565Z,0.68
2022-09-15T17:15:58.193Z,0.70
2022-09-15T17:18:25.871Z,0.60
2022-09-15T17:21:00.088Z,0.60
2022-09-15T17:23:31.127Z,0.50
2022-09-15T17:25:59.732Z,0.50
2022-09-15T17:28:28.899Z,0.57
2022-09-15T17:31:04.407Z,0.68
2022-09-15T17:33:32.462Z,0.60
2022-09-15T17:36:00.047Z,0.82
2022-09-15T17:38:27.483Z,0.80
2022-09-15T17:40:57.628Z,0.70
2022-09-15T17:43:26.975Z,0.90
2022-09-15T17:45:54.559Z,0.55
2022-09-15T17:48:22.439Z,0.60
2022-09-15T17:50:50.144Z,0.45
2022-09-15T17:53:28.418Z,0.60
2022-09-15T17:55:55.636Z,0.70
2022-09-15T18:00:50.510Z,0.50
2022-09-15T18:03:35.203Z,0.60
2022-09-15T18:06:05.675Z,0.50
2022-09-15T18:08:33.141Z,0.60
2022-09-15T18:11:00.851Z,0.60
2022-09-15T18:13:29.810Z,0.80
2022-09-15T18:15:57.775Z,0.77
2022-09-15T18:18:27.475Z,0.50
2022-09-15T18:20:57.869Z,0.70
2022-09-15T18:23:26.877Z,0.60
2022-09-15T18:25:53.688Z,0.68
2022-09-15T18:28:20.672Z,0.70
2022-09-15T18:30:49.025Z,0.65
2022-09-15T18:33:23.742Z,0.65
2022-09-15T18:35:53.203Z,0.55
2022-09-15T18:38:20.592Z,0.80
2022-09-15T18:40:49.754Z,1.00
2022-09-15T18:43:20.561Z,1.40
2022-09-15T18:45:48.378Z,1.80
2022-09-15T18:48:15.669Z,1.98
2022-09-15T18:50:44.341Z,2.42
2022-09-15T18:53:11.633Z,2.60
2022-09-15T18:58:06.716Z,3.50
2022-09-15T19:00:33.462Z,3.35
2022-09-15T19:03:02.057Z,3.80
2022-09-15T19:05:30.601Z,4.32
2022-09-15T19:07:57.635Z,4.63
2022-09-15T19:10:26.498Z,4.45
2022-09-15T19:12:54.208Z,4.45
2022-09-15T19:15:23.575Z,3.92
2022-09-15T19:17:54.909Z,4.28
2022-09-15T19:20:21.588Z,4.22
2022-09-15T19:22:48.225Z,4.97
2022-09-15T19:25:14.928Z,4.70
2022-09-15T19:27:41.699Z,4.55
2022-09-15T19:30:10.309Z,4.32
2022-09-15T19:32:38.246Z,4.85
2022-09-15T19:35:05.738Z,4.82
2022-09-15T19:37:36.301Z,4.05
2022-09-15T19:40:09.373Z,4.15
2022-09-15T19:42:40.838Z,4.22
2022-09-15T19:45:09.637Z,5.30
2022-09-15T19:47:37.138Z,3.95
2022-09-15T19:50:06.172Z,4.00
2022-09-15T19:52:32.892Z,4.53
2022-09-15T19:54:59.592Z,4.45
2022-09-15T19:57:26.927Z,3.55
2022-09-15T20:02:20.323Z,3.47
2022-09-15T20:04:47.612Z,3.42
2022-09-15T20:07:14.246Z,3.45
2022-09-15T20:09:40.885Z,3.63
2022-09-15T20:12:07.706Z,4.40
2022-09-15T20:14:34.385Z,3.65
2022-09-15T20:17:01.823Z,3.17
2022-09-15T20:19:29.318Z,3.10
2022-09-15T20:24:23.865Z,2.97
2022-09-15T20:26:51.587Z,3.30
2022-09-15T20:29:18.836Z,3.65
2022-09-15T20:31:45.533Z,3.17
2022-09-15T20:34:12.494Z,3.03
2022-09-15T20:36:39.300Z,2.38
2022-09-15T20:39:10.279Z,2.60
2022-09-15T20:41:37.074Z,2.90
2022-09-15T20:44:05.176Z,2.55
2022-09-15T20:46:31.813Z,2.95
2022-09-15T20:48:58.548Z,2.60
2022-09-15T20:51:27.905Z,3.20
2022-09-15T20:53:56.348Z,3.10
2022-09-15T20:56:25.484Z,3.25
2022-09-15T20:58:53.882Z,3.03
2022-09-15T21:01:23.528Z,4.65
2022-09-15T21:03:50.941Z,3.60
2022-09-15T21:08:47.408Z,3.10
2022-09-15T21:11:15.811Z,3.10
2022-09-15T21:13:43.464Z,3.10
2022-09-15T21:16:14.077Z,3.55
2022-09-15T21:18:42.204Z,3.58
2022-09-15T21:21:21.137Z,3.30
2022-09-15T21:23:50.309Z,4.05
2022-09-15T21:26:19.534Z,3.65
2022-09-15T21:28:46.626Z,3.72
2022-09-15T21:31:16.314Z,3.38
2022-09-15T21:33:44.542Z,3.80
2022-09-15T21:36:14.603Z,3.95
2022-09-15T21:38:43.450Z,3.20
2022-09-15T21:41:13.693Z,3.40
2022-09-15T21:43:41.918Z,3.30
2022-09-15T21:46:13.138Z,3.53
2022-09-15T21:48:40.499Z,2.88
2022-09-15T21:53:34.989Z,3.47
2022-09-15T21:56:03.808Z,3.15
2022-09-15T21:58:38.999Z,3.35
2022-09-15T22:01:20.864Z,3.22
2022-09-15T22:04:05.519Z,3.03
2022-09-15T22:06:37.044Z,2.97
2022-09-15T22:09:06.824Z,2.92
2022-09-15T22:11:34.058Z,3.25
2022-09-15T22:14:03.164Z,3.60
2022-09-15T22:16:30.284Z,3.00
2022-09-15T22:18:57.474Z,2.80
2022-09-15T22:21:30.482Z,3.35
2022-09-15T22:23:59.049Z,3.00
2022-09-15T22:26:27.943Z,3.42
2022-09-15T22:28:55.664Z,2.38
2022-09-15T22:31:23.888Z,2.72
2022-09-15T22:33:50.704Z,2.60
2022-09-15T22:36:29.332Z,2.67
2022-09-15T22:39:03.736Z,2.97
2022-09-15T22:41:32.148Z,2.95
2022-09-15T22:43:58.965Z,2.63
2022-09-15T22:46:25.830Z,3.22
2022-09-15T22:48:52.567Z,2.95
2022-09-15T22:51:19.263Z,2.80
2022-09-15T22:53:45.908Z,2.55
2022-09-15T22:56:15.281Z,3.10
2022-09-15T22:58:43.956Z,2.70
2022-09-15T23:01:17.371Z,2.38
2022-09-15T23:03:47.386Z,2.72
2022-09-15T23:06:14.401Z,2.67
2022-09-15T23:08:41.389Z,2.60
2022-09-15T23:11:13.073Z,2.38
2022-09-15T23:13:40.754Z,2.28
2022-09-15T23:16:08.306Z,2.92
2022-09-15T23:18:35.585Z,3.00
2022-09-15T23:21:07.240Z,2.95
2022-09-15T23:23:35.872Z,2.75
2022-09-15T23:26:04.320Z,2.58
2022-09-15T23:28:31.818Z,2.20
2022-09-15T23:30:59.333Z,2.70
2022-09-15T23:33:27.743Z,2.22
2022-09-15T23:35:55.270Z,2.08
2022-09-15T23:38:22.290Z,2.35
2022-09-15T23:40:50.453Z,2.30
2022-09-15T23:43:17.790Z,2.17
2022-09-15T23:48:13.778Z,2.80
2022-09-15T23:50:41.358Z,2.65
2022-09-15T23:53:08.610Z,2.75
2022-09-15T23:55:36.102Z,2.45
2022-09-15T23:58:04.587Z,2.60
